Time;durP1;ratioP1;P1;durP2;ratioP2;P2;SDS_P1;SDS_P2;PMS_P1;PMS_P2;Temp;Humidity;BMP_temperature;BMP_pressure;BME280_temperature;BME280_humidity;BME280_pressure;Samples;Min_cycle;Max_cycle;Signal;HPM_P1;HPM_P2
2022/05/20 00:00:32;;;;;;;63.70;48.22;;;;;;;-145.45;100.00;62759.84;5318171;28;20479;-83
2022/05/20 00:03:04;;;;;;;56.75;46.78;;;;;;;-145.45;100.00;62759.84;5310094;28;20309;-83
2022/05/20 00:05:36;;;;;;;51.67;41.28;;;;;;;-145.45;100.00;62759.84;5292218;28;20419;-83
2022/05/20 00:08:07;;;;;;;51.88;43.05;;;;;;;-145.45;100.00;62759.84;5295171;27;20062;-83
2022/05/20 00:10:39;;;;;;;53.05;45.22;;;;;;;-145.45;100.00;62759.84;5298285;28;20365;-83
2022/05/20 00:13:10;;;;;;;57.38;47.15;;;;;;;-145.45;100.00;62759.84;5321811;28;20043;-82
2022/05/20 00:15:42;;;;;;;43.03;36.13;;;;;;;-145.45;100.00;62759.84;5317344;28;20032;-82
2022/05/20 00:18:13;;;;;;;42.67;35.75;;;;;;;-145.45;100.00;62759.84;5321602;28;20030;-82
2022/05/20 00:20:44;;;;;;;56.80;48.33;;;;;;;-145.45;100.00;62759.84;5315683;28;20490;-83
2022/05/20 00:23:16;;;;;;;57.72;47.20;;;;;;;-145.45;100.00;62759.84;5320039;28;20114;-83
2022/05/20 00:25:47;;;;;;;54.67;44.10;;;;;;;-145.45;100.00;62759.84;5295213;28;20458;-83
2022/05/20 00:28:27;;;;;;;46.92;39.85;;;;;;;-145.45;100.00;62759.84;5299608;28;20024;-83
2022/05/20 00:31:04;;;;;;;47.67;40.88;;;;;;;-145.45;100.00;62759.84;5316777;27;20028;-82
2022/05/20 00:33:40;;;;;;;37.72;33.03;;;;;;;-145.45;100.00;62759.84;5319009;28;20064;-82
2022/05/20 00:36:11;;;;;;;40.55;33.40;;;;;;;-145.45;100.00;62759.84;5319727;28;20038;-82
2022/05/20 00:38:42;;;;;;;44.22;37.70;;;;;;;-145.45;100.00;62759.84;5307363;28;20028;-83
2022/05/20 00:41:14;;;;;;;39.20;34.22;;;;;;;-145.45;100.00;62759.84;5317400;28;20021;-82
2022/05/20 00:43:47;;;;;;;34.28;30.52;;;;;;;-145.45;100.00;62759.84;5313083;28;20032;-83
2022/05/20 00:46:22;;;;;;;34.45;30.75;;;;;;;-145.45;100.00;62759.84;5317147;28;20127;-83
2022/05/20 00:49:00;;;;;;;33.83;30.17;;;;;;;-145.45;100.00;62759.84;5319484;28;20518;-82
2022/05/20 00:51:38;;;;;;;38.80;33.28;;;;;;;-145.45;100.00;62759.84;5310989;28;20068;-82
2022/05/20 00:54:15;;;;;;;36.25;32.45;;;;;;;-145.45;100.00;62759.84;5317665;28;20068;-83
2022/05/20 00:56:57;;;;;;;37.75;32.22;;;;;;;-145.45;100.00;62759.84;5307090;28;20075;-83
2022/05/20 00:59:30;;;;;;;33.47;29.88;;;;;;;-145.45;100.00;62759.84;5320530;28;20036;-83
2022/05/20 01:02:09;;;;;;;33.53;28.58;;;;;;;-145.45;100.00;62759.84;5322129;28;20031;-83
2022/05/20 01:04:42;;;;;;;35.70;30.20;;;;;;;-145.45;100.00;62759.84;5322623;28;20035;-83
2022/05/20 01:07:17;;;;;;;37.53;31.40;;;;;;;-145.45;100.00;62759.84;5316947;28;20173;-83
2022/05/20 01:09:48;;;;;;;39.95;34.55;;;;;;;-145.45;100.00;62759.84;5318564;27;20497;-83
2022/05/20 01:12:21;;;;;;;46.25;39.15;;;;;;;-145.45;100.00;62759.84;5317862;28;20111;-83
2022/05/20 01:14:52;;;;;;;54.22;43.15;;;;;;;-145.45;100.00;62759.84;5312700;28;20401;-83
2022/05/20 01:17:24;;;;;;;49.72;42.85;;;;;;;-145.45;100.00;62759.84;5314024;28;20123;-83
2022/05/20 01:19:56;;;;;;;57.17;45.75;;;;;;;-145.45;100.00;62759.84;5292856;28;20031;-83
2022/05/20 01:22:33;;;;;;;57.08;47.00;;;;;;;-145.45;100.00;62759.84;5296609;28;20028;-83
2022/05/20 01:25:06;;;;;;;38.67;33.53;;;;;;;-145.45;100.00;62759.84;5294147;28;20044;-82
2022/05/20 01:27:42;;;;;;;57.65;46.13;;;;;;;-145.45;100.00;62759.84;5315387;28;20036;-83
2022/05/20 01:30:17;;;;;;;55.45;45.25;;;;;;;-145.45;100.00;62759.84;5315644;28;20069;-83
2022/05/20 01:32:49;;;;;;;45.10;38.40;;;;;;;-145.45;100.00;62759.84;5315509;28;20051;-83
2022/05/20 01:35:32;;;;;;;43.53;34.75;;;;;;;-145.45;100.00;62759.84;5317041;28;20365;-81
2022/05/20 01:38:05;;;;;;;42.53;37.28;;;;;;;-145.45;100.00;62759.84;5316370;28;20382;-81
2022/05/20 01:40:45;;;;;;;44.22;36.00;;;;;;;-145.45;100.00;62759.84;5314373;28;20063;-82
2022/05/20 01:43:43;;;;;;;37.20;32.65;;;;;;;-145.45;100.00;62759.84;5291379;28;20032;-82
2022/05/20 01:46:19;;;;;;;;;;;;;;;-145.45;100.00;62759.84;5306957;28;20071;-81
2022/05/20 01:49:16;;;;;;;35.90;30.30;;;;;;;-145.45;100.00;62759.84;5319817;28;19923;-82
2022/05/20 01:52:03;;;;;;;50.17;41.27;;;;;;;-145.45;100.00;62759.84;5315401;28;20049;-82
2022/05/20 01:54:47;;;;;;;53.05;42.95;;;;;;;-145.45;100.00;62759.84;5317522;28;20174;-82
2022/05/20 01:57:31;;;;;;;40.88;35.63;;;;;;;-145.45;100.00;62759.84;5295757;28;20024;-81
2022/05/20 02:00:06;;;;;;;43.78;38.95;;;;;;;-145.45;100.00;62759.84;5312642;28;20154;-82
2022/05/20 02:03:03;;;;;;;37.05;33.05;;;;;;;-145.45;100.00;62759.84;5315043;28;20032;-82
2022/05/20 02:05:56;;;;;;;34.22;30.33;;;;;;;-145.45;100.00;62759.84;5309441;28;20120;-81
2022/05/20 02:08:37;;;;;;;38.35;32.38;;;;;;;-145.45;100.00;62759.84;5318896;27;20063;-82
2022/05/20 02:11:41;;;;;;;29.30;25.70;;;;;;;-145.45;100.00;62759.84;5338928;27;20023;-82
2022/05/20 02:14:28;;;;;;;26.67;23.92;;;;;;;-145.45;100.00;62759.84;5324851;27;20039;-82
2022/05/20 02:17:15;;;;;;;28.05;23.83;;;;;;;-145.45;100.00;62759.84;5316567;27;20031;-82
2022/05/20 02:20:04;;;;;;;25.75;23.05;;;;;;;-145.45;100.00;62759.84;5315215;27;20384;-82
2022/05/20 02:22:41;;;;;;;33.05;29.55;;;;;;;-145.45;100.00;62759.84;5321413;27;20031;-82
2022/05/20 02:25:19;;;;;;;32.75;29.27;;;;;;;-145.45;100.00;62759.84;5334855;27;20447;-82
2022/05/20 02:27:57;;;;;;;25.52;22.48;;;;;;;-145.45;100.00;62759.84;5317394;27;20040;-82
2022/05/20 02:30:32;;;;;;;25.23;22.00;;;;;;;-145.45;100.00;62759.84;5327193;27;20099;-82
2022/05/20 02:33:09;;;;;;;21.85;19.38;;;;;;;-145.45;100.00;62759.84;5331643;27;20525;-82
2022/05/20 02:35:41;;;;;;;24.05;21.65;;;;;;;-145.45;100.00;62759.84;5336577;27;20027;-83
2022/05/20 02:38:22;;;;;;;22.30;20.10;;;;;;;-145.45;100.00;62759.84;5337236;27;20032;-82
2022/05/20 02:40:54;;;;;;;24.75;22.25;;;;;;;-145.45;100.00;62759.84;5326904;27;20592;-82
2022/05/20 02:43:26;;;;;;;24.40;21.83;;;;;;;-145.45;100.00;62759.84;5318850;27;20028;-82
2022/05/20 02:45:57;;;;;;;26.92;22.85;;;;;;;-145.45;100.00;62759.84;5337004;27;20028;-82
2022/05/20 02:48:28;;;;;;;26.13;23.35;;;;;;;-145.45;100.00;62759.84;5338235;27;20077;-82
2022/05/20 02:51:00;;;;;;;26.88;23.98;;;;;;;-145.45;100.00;62759.84;5337247;27;20038;-82
2022/05/20 02:53:31;;;;;;;25.98;23.30;;;;;;;-145.45;100.00;62759.84;5340194;27;20086;-82
2022/05/20 02:56:03;;;;;;;24.77;22.13;;;;;;;-145.45;100.00;62759.84;5340933;27;20110;-82
2022/05/20 03:04:15;;;;;;;22.23;19.98;;;;;;;-145.45;100.00;62759.84;5343151;27;20491;-82
2022/05/20 03:06:49;;;;;;;22.23;19.92;;;;;;;-145.45;100.00;62759.84;5338887;27;20024;-82
2022/05/20 03:09:22;;;;;;;21.10;18.92;;;;;;;-145.45;100.00;62759.84;5331859;27;20123;-83
2022/05/20 03:11:54;;;;;;;22.80;20.33;;;;;;;-145.45;100.00;62759.84;5337400;27;20032;-83
2022/05/20 03:14:25;;;;;;;25.92;23.30;;;;;;;-145.45;100.00;62759.84;5334528;27;20065;-83
2022/05/20 03:17:00;;;;;;;24.85;21.88;;;;;;;-145.45;100.00;62759.84;5339015;27;21259;-83
2022/05/20 03:19:33;;;;;;;21.77;19.55;;;;;;;-145.45;100.00;62759.84;5342299;27;20036;-83
2022/05/20 03:22:06;;;;;;;23.90;20.85;;;;;;;-145.45;100.00;62759.84;5339758;27;20035;-83
2022/05/20 03:24:41;;;;;;;24.33;21.48;;;;;;;-145.45;100.00;62759.84;5336829;27;20043;-83
2022/05/20 03:27:13;;;;;;;25.08;22.38;;;;;;;-145.45;100.00;62759.84;5329881;27;20054;-83
2022/05/20 03:29:45;;;;;;;28.30;25.27;;;;;;;-145.45;100.00;62759.84;5340468;27;20056;-83
2022/05/20 03:32:16;;;;;;;36.75;32.75;;;;;;;-145.45;100.00;62759.84;5342690;27;20146;-83
2022/05/20 03:34:48;;;;;;;38.50;32.95;;;;;;;-145.45;100.00;62759.84;5335627;27;20054;-82
2022/05/20 03:37:19;;;;;;;43.08;38.05;;;;;;;-145.45;100.00;62759.84;5337484;27;20024;-82
2022/05/20 03:39:51;;;;;;;31.38;26.33;;;;;;;-145.45;100.00;62759.84;5340174;27;20395;-82
2022/05/20 03:42:24;;;;;;;33.58;28.65;;;;;;;-145.45;100.00;62759.84;5330243;27;20509;-83
2022/05/20 03:44:55;;;;;;;31.33;27.92;;;;;;;-145.45;100.00;62759.84;5343022;27;20261;-82
2022/05/20 03:47:26;;;;;;;33.05;28.77;;;;;;;-145.45;100.00;62759.84;5336355;27;20170;-83
2022/05/20 03:50:00;;;;;;;35.40;31.55;;;;;;;-145.45;100.00;62759.84;5332572;27;20024;-83
2022/05/20 03:52:31;;;;;;;34.97;30.73;;;;;;;-145.45;100.00;62759.84;5339782;27;20603;-83
2022/05/20 03:55:03;;;;;;;32.03;27.80;;;;;;;-145.45;100.00;62759.84;5340307;27;20023;-83
2022/05/20 03:57:35;;;;;;;37.80;33.67;;;;;;;-145.45;100.00;62759.84;5336045;27;20363;-83
2022/05/20 04:00:06;;;;;;;34.83;30.92;;;;;;;-145.45;100.00;62759.84;5339591;27;20063;-83
2022/05/20 04:02:38;;;;;;;36.03;32.08;;;;;;;-145.45;100.00;62759.84;5339697;27;20101;-82
2022/05/20 04:05:09;;;;;;;38.60;34.08;;;;;;;-145.45;100.00;62759.84;5339043;27;20051;-82
2022/05/20 04:07:41;;;;;;;44.22;35.58;;;;;;;-145.45;100.00;62759.84;5335582;27;20020;-82
2022/05/20 04:10:13;;;;;;;55.72;45.97;;;;;;;-145.45;100.00;62759.84;5320337;27;20493;-82
2022/05/20 04:12:44;;;;;;;63.53;47.97;;;;;;;-145.45;100.00;62759.84;5317346;28;20041;-82
2022/05/20 04:15:16;;;;;;;48.80;36.90;;;;;;;-145.45;100.00;62759.84;5310549;28;20028;-82
2022/05/20 04:17:47;;;;;;;66.88;51.42;;;;;;;-145.45;100.00;62759.84;5314077;28;20051;-83
2022/05/20 04:20:18;;;;;;;72.13;53.92;;;;;;;-145.45;100.00;62759.84;5314050;28;20110;-83
2022/05/20 04:22:49;;;;;;;75.45;57.83;;;;;;;-145.45;100.00;62759.84;5312730;28;20069;-83
2022/05/20 04:25:21;;;;;;;59.17;44.92;;;;;;;-145.45;100.00;62759.84;5308823;28;20036;-82
2022/05/20 04:27:52;;;;;;;54.70;40.95;;;;;;;-145.45;100.00;62759.84;5318938;28;20036;-82
2022/05/20 04:30:23;;;;;;;77.75;58.20;;;;;;;-145.45;100.00;62759.84;5282758;28;42900;-82
2022/05/20 04:32:55;;;;;;;73.30;51.35;;;;;;;-145.45;100.00;62759.84;5314907;28;20032;-82
2022/05/20 04:35:26;;;;;;;85.72;61.90;;;;;;;-145.45;100.00;62759.84;5314247;28;20036;-82
2022/05/20 04:37:57;;;;;;;81.53;59.95;;;;;;;-145.45;100.00;62759.84;5317952;28;20020;-82
2022/05/20 04:40:28;;;;;;;76.75;59.60;;;;;;;-145.45;100.00;62759.84;5295333;28;20023;-82
2022/05/20 04:48:42;;;;;;;86.45;62.33;;;;;;;-145.45;100.00;62759.84;5313636;28;20032;-82
2022/05/20 04:51:13;;;;;;;65.13;47.55;;;;;;;-145.45;100.00;62759.84;5294935;28;20552;-82
2022/05/20 04:56:34;;;;;;;62.33;44.85;;;;;;;-145.45;100.00;62759.84;5317047;28;20028;-82
2022/05/20 04:59:05;;;;;;;69.32;49.60;;;;;;;-145.45;100.00;62759.84;5298202;28;20077;-81
2022/05/20 05:01:36;;;;;;;67.20;49.63;;;;;;;-145.45;100.00;62759.84;5298089;28;20102;-81
2022/05/20 05:04:08;;;;;;;68.65;49.08;;;;;;;-145.45;100.00;62759.84;5317655;28;20050;-82
2022/05/20 05:06:39;;;;;;;54.40;43.42;;;;;;;-145.45;100.00;62759.84;5314653;28;20128;-82
2022/05/20 05:09:11;;;;;;;61.15;49.67;;;;;;;-145.45;100.00;62759.84;5316033;27;20369;-82
2022/05/20 05:11:42;;;;;;;60.75;45.67;;;;;;;-145.45;100.00;62759.84;5340312;27;20126;-82
2022/05/20 05:14:14;;;;;;;58.00;48.15;;;;;;;-145.45;100.00;62759.84;5338438;27;20044;-82
2022/05/20 05:16:46;;;;;;;47.63;40.35;;;;;;;-145.45;100.00;62759.84;5337182;27;20456;-82
2022/05/20 05:19:17;;;;;;;49.55;42.13;;;;;;;-145.45;100.00;62759.84;5340372;27;20031;-82
2022/05/20 05:21:48;;;;;;;46.03;41.10;;;;;;;-145.45;100.00;62759.84;5337890;27;20015;-81
2022/05/20 05:24:20;;;;;;;49.85;44.55;;;;;;;-145.45;100.00;62759.84;5336987;27;20035;-81
2022/05/20 05:26:52;;;;;;;49.13;44.00;;;;;;;-145.45;100.00;62759.84;5332898;27;20016;-82
2022/05/20 05:29:23;;;;;;;46.30;41.63;;;;;;;-145.45;100.00;62759.84;5339427;27;20035;-82
2022/05/20 05:31:54;;;;;;;46.45;41.45;;;;;;;-145.45;100.00;62759.84;5346736;27;20027;-81
2022/05/20 05:34:26;;;;;;;41.17;37.10;;;;;;;-145.45;100.00;62759.84;5336826;27;20051;-82
2022/05/20 05:36:57;;;;;;;45.65;40.95;;;;;;;-145.45;100.00;62759.84;5326154;27;20081;-82
2022/05/20 05:39:28;;;;;;;47.17;42.72;;;;;;;-145.45;100.00;62759.84;5329690;27;20110;-82
2022/05/20 05:42:01;;;;;;;44.80;40.42;;;;;;;-145.45;100.00;62759.84;5343520;27;43670;-82
2022/05/20 05:44:32;;;;;;;46.45;41.70;;;;;;;-145.45;100.00;62759.84;5343624;27;20043;-82
2022/05/20 05:47:04;;;;;;;49.38;44.40;;;;;;;-145.45;100.00;62759.84;5345798;27;20497;-82
2022/05/20 05:49:35;;;;;;;49.05;43.53;;;;;;;-145.45;100.00;62759.84;5343942;27;20035;-83
2022/05/20 05:52:06;;;;;;;44.03;39.38;;;;;;;-145.45;100.00;62759.84;5338268;27;20502;-82
2022/05/20 05:54:38;;;;;;;40.60;36.50;;;;;;;-145.45;100.00;62759.84;5326880;27;20044;-82
2022/05/20 05:57:10;;;;;;;39.47;35.80;;;;;;;-145.45;100.00;62759.84;5351691;27;20035;-82
2022/05/20 05:59:41;;;;;;;38.65;35.05;;;;;;;-145.45;100.00;62759.84;5350107;27;20035;-83
2022/05/20 06:02:16;;;;;;;35.28;31.67;;;;;;;-145.45;100.00;62759.84;5346960;27;20047;-82
2022/05/20 06:04:48;;;;;;;34.35;31.02;;;;;;;-145.45;100.00;62759.84;5345088;27;20031;-82
2022/05/20 06:07:20;;;;;;;29.75;26.85;;;;;;;-145.45;100.00;62759.84;5346635;27;20483;-82
2022/05/20 06:09:51;;;;;;;32.42;29.35;;;;;;;-145.45;100.00;62759.84;5327431;27;20051;-82
2022/05/20 06:12:23;;;;;;;23.42;21.20;;;;;;;-145.45;100.00;62759.84;5315504;28;20385;-82
2022/05/20 06:14:54;;;;;;;26.63;24.13;;;;;;;-145.45;100.00;62759.84;5310408;27;20031;-82
2022/05/20 06:17:25;;;;;;;26.40;23.75;;;;;;;-145.45;100.00;62759.84;5294944;28;20044;-83
2022/05/20 06:19:56;;;;;;;22.73;20.33;;;;;;;-145.45;100.00;62759.84;5303475;28;20020;-82
2022/05/20 06:22:28;;;;;;;21.77;19.77;;;;;;;-145.45;100.00;62759.84;5303823;28;20032;-83
2022/05/20 06:24:59;;;;;;;22.17;19.65;;;;;;;-145.45;100.00;62759.84;5316072;28;20077;-83
2022/05/20 06:27:37;;;;;;;21.38;19.23;;;;;;;-145.45;100.00;62759.84;5324392;28;20095;-82
2022/05/20 06:30:11;;;;;;;20.52;18.38;;;;;;;-145.45;100.00;62759.84;5323682;28;24177;-83
2022/05/20 06:32:42;;;;;;;19.83;17.70;;;;;;;-145.45;100.00;62759.84;5323853;28;20089;-83
2022/05/20 06:40:55;;;;;;;18.08;14.63;;;;;;;-145.45;100.00;62759.84;5324386;28;20028;-82
2022/05/20 06:43:27;;;;;;;15.32;12.90;;;;;;;-145.45;100.00;62759.84;5319997;28;20013;-82
2022/05/20 06:46:02;;;;;;;14.20;12.80;;;;;;;-145.45;100.00;62759.84;5302618;28;20439;-82
2022/05/20 06:48:46;;;;;;;14.75;13.35;;;;;;;-145.45;100.00;62759.84;5323277;28;20030;-82
2022/05/20 06:51:20;;;;;;;15.13;13.57;;;;;;;-145.45;100.00;62759.84;5324409;28;20062;-82
2022/05/20 06:53:53;;;;;;;14.25;12.80;;;;;;;-145.45;100.00;62759.84;5306560;28;20031;-82
2022/05/20 06:56:28;;;;;;;14.30;12.85;;;;;;;-145.45;100.00;62759.84;5324095;28;20047;-82
2022/05/20 06:59:01;;;;;;;13.67;12.27;;;;;;;-145.45;100.00;62759.84;5305556;28;20028;-82
2022/05/20 07:01:33;;;;;;;15.90;12.15;;;;;;;-145.45;100.00;62759.84;5305749;28;20107;-82
2022/05/20 07:04:06;;;;;;;15.05;11.98;;;;;;;-145.45;100.00;62759.84;5317073;28;20039;-82
2022/05/20 07:06:38;;;;;;;13.35;11.77;;;;;;;-145.45;100.00;62759.84;5286237;28;20024;-83
2022/05/20 07:09:09;;;;;;;12.48;11.18;;;;;;;-145.45;100.00;62759.84;5304663;28;20327;-83
2022/05/20 07:11:42;;;;;;;11.95;10.20;;;;;;;-145.45;100.00;62759.84;5303508;28;20024;-83
2022/05/20 07:14:13;;;;;;;11.50;10.02;;;;;;;-145.45;100.00;62759.84;5303222;28;20055;-83
2022/05/20 07:16:44;;;;;;;14.32;9.50;;;;;;;-145.45;100.00;62759.84;5313662;28;20020;-82
2022/05/20 07:19:16;;;;;;;13.23;9.65;;;;;;;-145.45;100.00;62759.84;5324532;28;20027;-83
2022/05/20 07:21:47;;;;;;;10.27;9.10;;;;;;;-145.45;100.00;62759.84;5324145;28;20063;-83
2022/05/20 07:24:19;;;;;;;9.57;8.57;;;;;;;-145.45;100.00;62759.84;5323748;28;20427;-83
2022/05/20 07:26:50;;;;;;;12.43;9.60;;;;;;;-145.45;100.00;62759.84;5324367;28;20111;-83
2022/05/20 07:29:23;;;;;;;10.65;9.23;;;;;;;-145.45;100.00;62759.84;5325562;28;20020;-82
2022/05/20 07:31:55;;;;;;;10.23;8.80;;;;;;;-145.45;100.00;62759.84;5304880;28;20029;-83
2022/05/20 07:34:26;;;;;;;11.80;8.48;;;;;;;-145.45;100.00;62759.84;5304735;28;20035;-83
2022/05/20 07:36:58;;;;;;;8.98;7.68;;;;;;;-145.45;100.00;62759.84;5302681;28;20028;-83
2022/05/20 07:39:29;;;;;;;13.82;7.10;;;;;;;-145.45;100.00;62759.84;5284201;28;20033;-83
2022/05/20 07:42:00;;;;;;;7.88;6.45;;;;;;;-145.45;100.00;62759.84;5304317;28;20361;-83
2022/05/20 07:44:33;;;;;;;7.78;6.63;;;;;;;-145.45;100.00;62759.84;5327621;28;20017;-84
2022/05/20 07:47:04;;;;;;;8.32;5.97;;;;;;;-145.45;100.00;62759.84;5307981;28;20024;-83
2022/05/20 07:49:36;;;;;;;8.52;5.32;;;;;;;-145.45;100.00;62759.84;5309691;28;20035;-84
2022/05/20 07:52:10;;;;;;;7.60;4.80;;;;;;;-145.45;100.00;62759.84;5309418;28;20047;-83
2022/05/20 07:54:44;;;;;;;7.45;4.78;;;;;;;-145.45;100.00;62759.84;5308971;28;20158;-83
2022/05/20 07:57:16;;;;;;;7.82;5.05;;;;;;;-145.45;100.00;62759.84;5327054;28;20032;-83
2022/05/20 07:59:51;;;;;;;7.20;4.80;;;;;;;-145.45;100.00;62759.84;5328046;28;20384;-83
2022/05/20 08:02:26;;;;;;;7.70;5.43;;;;;;;-145.45;100.00;62759.84;5308295;28;20483;-83
2022/05/20 08:05:00;;;;;;;11.13;5.10;;;;;;;-145.45;100.00;62759.84;5327396;28;20330;-83
2022/05/20 08:07:35;;;;;;;6.72;4.13;;;;;;;-145.45;100.00;62759.84;5327157;28;20020;-83
2022/05/20 08:10:11;;;;;;;8.80;5.03;;;;;;;-145.45;100.00;62759.84;5326104;27;20047;-83
2022/05/20 08:12:42;;;;;;;7.82;5.38;;;;;;;-145.45;100.00;62759.84;5307673;28;20041;-83
2022/05/20 08:15:15;;;;;;;5.80;4.25;;;;;;;-145.45;100.00;62759.84;5302130;28;20119;-83
2022/05/20 08:17:49;;;;;;;6.18;4.40;;;;;;;-145.45;100.00;62759.84;5306192;28;20484;-83
2022/05/20 08:20:25;;;;;;;10.80;4.80;;;;;;;-145.45;100.00;62759.84;5310406;28;20048;-83
2022/05/20 08:22:57;;;;;;;7.57;4.65;;;;;;;-145.45;100.00;62759.84;5332208;28;20050;-83
2022/05/20 08:25:29;;;;;;;10.63;5.03;;;;;;;-145.45;100.00;62759.84;5329800;28;20058;-82
2022/05/20 08:28:00;;;;;;;8.80;4.80;;;;;;;-145.45;100.00;62759.84;5353874;27;20034;-83
2022/05/20 08:30:32;;;;;;;7.88;5.13;;;;;;;-145.45;100.00;62759.84;5317004;27;20123;-83
2022/05/20 08:33:04;;;;;;;9.43;5.10;;;;;;;-145.45;100.00;62759.84;5331394;28;20051;-83
2022/05/20 08:35:35;;;;;;;9.02;4.90;;;;;;;-145.45;100.00;62759.84;5330649;28;20077;-83
2022/05/20 08:38:06;;;;;;;8.67;5.37;;;;;;;-145.45;100.00;62759.84;5312521;28;20465;-83
2022/05/20 08:40:43;;;;;;;8.02;5.25;;;;;;;-145.45;100.00;62759.84;5329267;28;20267;-83
2022/05/20 08:43:14;;;;;;;8.07;5.10;;;;;;;-145.45;100.00;62759.84;5327141;28;20442;-83
2022/05/20 08:45:46;;;;;;;11.55;6.25;;;;;;;-145.45;100.00;62759.84;5308141;28;20043;-83
2022/05/20 08:48:18;;;;;;;7.43;6.40;;;;;;;-145.45;100.00;62759.84;5308382;28;20032;-83
2022/05/20 08:50:55;;;;;;;11.57;6.18;;;;;;;-145.45;100.00;62759.84;5325775;28;20467;-83
2022/05/20 08:53:34;;;;;;;10.77;6.20;;;;;;;-145.45;100.00;62759.84;5308052;28;20028;-83
2022/05/20 08:56:10;;;;;;;10.90;6.45;;;;;;;-145.45;100.00;62759.84;5303249;28;20033;-83
2022/05/20 08:59:02;;;;;;;10.68;7.13;;;;;;;-145.45;100.00;62759.84;5303742;28;20108;-83
2022/05/20 09:01:39;;;;;;;10.77;6.45;;;;;;;-145.45;100.00;62759.84;5299377;28;20021;-83
2022/05/20 09:04:14;;;;;;;10.38;7.30;;;;;;;-145.45;100.00;62759.84;5286091;28;20476;-83
2022/05/20 09:07:01;;;;;;;11.30;7.60;;;;;;;-145.45;100.00;62759.84;5285963;28;20441;-83
2022/05/20 09:09:54;;;;;;;10.60;8.23;;;;;;;-145.45;100.00;62759.84;5312316;27;20110;-83
2022/05/20 09:12:28;;;;;;;13.55;8.88;;;;;;;-145.45;100.00;62759.84;5324106;28;20024;-83
2022/05/20 09:18:07;;;;;;;10.57;8.15;;;;;;;-145.45;100.00;62759.84;5326277;28;20028;-82
2022/05/20 09:20:44;;;;;;;10.45;7.57;;;;;;;-145.45;100.00;62759.84;5325605;27;20024;-82
2022/05/20 09:23:20;;;;;;;10.18;8.82;;;;;;;-145.45;100.00;62759.84;5325529;28;20468;-83
2022/05/20 09:26:07;;;;;;;9.77;8.63;;;;;;;-145.45;100.00;62759.84;5339945;27;20058;-83
2022/05/20 09:28:44;;;;;;;10.55;7.75;;;;;;;-145.45;100.00;62759.84;5341813;27;20024;-83
2022/05/20 09:31:35;;;;;;;13.13;9.07;;;;;;;-145.45;100.00;62759.84;5324882;27;20495;-84
2022/05/20 09:34:25;;;;;;;12.68;8.48;;;;;;;-145.45;100.00;62759.84;5324363;28;20110;-83
2022/05/20 09:37:02;;;;;;;10.82;8.98;;;;;;;-145.45;100.00;62759.84;5340992;27;20032;-84
2022/05/20 09:39:41;;;;;;;10.40;9.02;;;;;;;-145.45;100.00;62759.84;5325271;28;20024;-83
2022/05/20 09:42:25;;;;;;;14.48;9.82;;;;;;;-145.45;100.00;62759.84;5316093;27;20432;-83
2022/05/20 09:44:58;;;;;;;11.27;9.43;;;;;;;-145.45;100.00;62759.84;5340845;27;20035;-83
2022/05/20 09:47:33;;;;;;;12.18;9.35;;;;;;;-145.45;100.00;62759.84;5326005;27;20254;-83
2022/05/20 09:50:22;;;;;;;15.82;10.15;;;;;;;-145.45;100.00;62759.84;5340398;27;20024;-83
2022/05/20 09:52:58;;;;;;;15.43;10.63;;;;;;;-145.45;100.00;62759.84;5325556;27;20024;-83
2022/05/20 09:55:37;;;;;;;12.43;10.65;;;;;;;-145.45;100.00;62759.84;5323362;28;20024;-83
2022/05/20 09:58:18;;;;;;;15.95;10.88;;;;;;;-145.45;100.00;62759.84;5345544;27;20466;-84
2022/05/20 10:01:11;;;;;;;15.77;10.73;;;;;;;-145.45;100.00;62759.84;5344643;27;20031;-83
2022/05/20 10:03:50;;;;;;;14.23;11.18;;;;;;;-145.45;100.00;62759.84;5344421;27;20016;-83
2022/05/20 10:06:34;;;;;;;15.25;10.77;;;;;;;-145.45;100.00;62759.84;5346755;27;20099;-83
2022/05/20 10:09:39;;;;;;;16.48;10.68;;;;;;;-145.45;100.00;62759.84;5334648;27;20036;-83
2022/05/20 10:12:24;;;;;;;14.30;10.27;;;;;;;-145.45;100.00;62759.84;5305637;28;20407;-83
2022/05/20 10:15:21;;;;;;;13.48;10.00;;;;;;;-145.45;100.00;62759.84;5305765;28;20024;-83
2022/05/20 10:18:07;;;;;;;14.38;10.73;;;;;;;-145.45;100.00;62759.84;5296310;28;20028;-84
2022/05/20 10:21:05;;;;;;;15.82;10.88;;;;;;;-145.45;100.00;62759.84;5322868;28;20138;-83
2022/05/20 10:23:42;;;;;;;17.55;11.40;;;;;;;-145.45;100.00;62759.84;5324341;28;20024;-84
2022/05/20 10:26:28;;;;;;;14.25;11.00;;;;;;;-145.45;100.00;62759.84;5284938;28;20051;-83
2022/05/20 10:32:34;;;;;;;13.35;10.65;;;;;;;-145.45;100.00;62759.84;5303045;28;20032;-83
2022/05/20 10:35:16;;;;;;;14.18;11.10;;;;;;;-145.45;100.00;62759.84;5294255;28;20028;-83
2022/05/20 10:38:05;;;;;;;12.30;10.10;;;;;;;-145.45;100.00;62759.84;5306128;28;20019;-83
2022/05/20 10:41:05;;;;;;;14.65;11.07;;;;;;;-145.45;100.00;62759.84;5324578;28;20494;-83
2022/05/20 10:50:24;;;;;;;15.48;11.13;;;;;;;-145.45;100.00;62759.84;5289280;28;20048;-83
2022/05/20 10:53:01;;;;;;;13.15;10.93;;;;;;;-145.45;100.00;62759.84;5305611;28;20115;-83
2022/05/20 10:55:54;;;;;;;12.23;9.50;;;;;;;-145.45;100.00;62759.84;5324307;28;20070;-83
2022/05/20 10:58:49;;;;;;;17.63;11.88;;;;;;;-145.45;100.00;62759.84;5323245;28;20055;-83
2022/05/20 11:01:41;;;;;;;14.73;10.82;;;;;;;-145.45;100.00;62759.84;5279151;28;20107;-83
2022/05/20 11:04:41;;;;;;;14.55;11.27;;;;;;;-145.45;100.00;62759.84;5317658;28;20028;-83
2022/05/20 11:07:31;;;;;;;16.55;11.02;;;;;;;-145.45;100.00;62759.84;5284460;28;20029;-83
2022/05/20 11:10:40;;;;;;;18.00;11.13;;;;;;;-145.45;100.00;62759.84;5302675;28;20554;-83
2022/05/20 11:13:30;;;;;;;17.15;11.98;;;;;;;-145.45;100.00;62759.84;5302734;28;20221;-83
2022/05/20 11:16:10;;;;;;;17.40;12.70;;;;;;;-145.45;100.00;62759.84;5306150;28;20094;-83
2022/05/20 11:19:01;;;;;;;14.65;11.40;;;;;;;-145.45;100.00;62759.84;5306418;28;20028;-83
2022/05/20 11:21:39;;;;;;;16.80;11.63;;;;;;;-145.45;100.00;62759.84;5323480;28;20032;-83
2022/05/20 11:24:42;;;;;;;20.17;14.82;;;;;;;-145.45;100.00;62759.84;5322398;28;20063;-83
2022/05/20 11:27:55;;;;;;;19.42;14.10;;;;;;;-145.45;100.00;62759.84;5306437;28;20036;-82
2022/05/20 11:30:46;;;;;;;17.05;15.38;;;;;;;-145.45;100.00;62759.84;5325553;28;20704;-83
2022/05/20 11:33:47;;;;;;;18.92;16.83;;;;;;;-145.45;100.00;62759.84;5319218;28;20052;-83
2022/05/20 11:36:21;;;;;;;19.40;16.27;;;;;;;-145.45;100.00;62759.84;5287987;28;20096;-83
2022/05/20 11:39:10;;;;;;;21.50;18.27;;;;;;;-145.45;100.00;62759.84;5306491;28;20020;-83
2022/05/20 11:41:59;;;;;;;22.92;18.65;;;;;;;-145.45;100.00;62759.84;5288358;28;37718;-83
2022/05/20 11:44:42;;;;;;;22.33;18.50;;;;;;;-145.45;100.00;62759.84;5305752;28;20020;-83
2022/05/20 11:47:41;;;;;;;22.90;18.35;;;;;;;-145.45;100.00;62759.84;5305756;28;20028;-83
2022/05/20 11:50:33;;;;;;;25.17;20.02;;;;;;;-145.45;100.00;62759.84;5287162;28;20016;-83
2022/05/20 11:53:24;;;;;;;25.67;19.85;;;;;;;-145.45;100.00;62759.84;5305903;28;20068;-82
2022/05/20 11:56:07;;;;;;;24.23;20.33;;;;;;;-145.45;100.00;62759.84;5295435;28;20035;-83
2022/05/20 11:58:43;;;;;;;26.88;20.48;;;;;;;-145.45;100.00;62759.84;5291410;28;20487;-83
2022/05/20 12:01:15;;;;;;;27.35;19.73;;;;;;;-145.45;100.00;62759.84;5304993;28;20366;-83
2022/05/20 12:04:07;;;;;;;24.63;20.88;;;;;;;-145.45;100.00;62759.84;5306178;28;20019;-83
2022/05/20 12:06:49;;;;;;;25.98;21.02;;;;;;;-145.45;100.00;62759.84;5303987;28;20021;-83
2022/05/20 12:09:41;;;;;;;37.63;27.52;;;;;;;-145.45;100.00;62759.84;5305064;28;20051;-82
2022/05/20 12:12:24;;;;;;;41.78;31.58;;;;;;;-145.45;100.00;62759.84;5306809;28;20477;-83